Terminal Aerodrome Forecast
Issued by NWS Cleveland, OH

Home | Current Version | Previous Version | Graphics & Text | Print | Product List | Glossary On
Versions: 1 2 3 4 5 6 7 8 9 10 11 12 13 14 15 16 17 18 19 20 21
000
FTUS41 KCLE 290500
TAFYNG
TAF
KYNG 290531Z 2906/3006 29004KT P6SM SCT022
      TEMPO 2906/2910 33004KT BKN022
     FM291000 34005KT P6SM BKN022
     FM291700 34006KT P6SM BKN035
     FM300000 35006KT P6SM SCT035=

USA.gov is the U.S. government's official web portal to all federal, state and local government web resources and services.